E.r.tianping — CQGU — position and weather

sailwx.info

Track history (hours):
 
Tides and Currents Weather Stations Pressure Air Temp Water Temp Dewpoint Dewpoint Depression Visibility Wind Speed Wind Dir Waves Ship Positions

E.r.tianping

Last reported at 2018-Jun-22 20:00 UTC. Time now 2018-Jun-22 20:15 UTC.
Position N 28°53' W 119°42'.

Length 334 m; draft 13.4 m.

Type: Ship (hazmat cat A). MMSI: 255805670.

Date/timePositionNaut miles runAvg speedWind from/ knotsBaromVisibWave heightAir tempDewpointWater temp
2018-Jun-22 20:00N 28°53' W 119°42'1818.8
2018-Jun-22 19:01N 29°05' W 119°58'118.9
2018-Jun-22 18:57N 29°06' W 119°59'1218.8
2018-Jun-22 18:20N 29°13' W 120°10'718.9
2018-Jun-22 17:58N 29°17' W 120°16'1020.4
2018-Jun-22 17:28N 29°24' W 120°25'1020.7
2018-Jun-22 17:00N 29°30' W 120°33'1020.7
2018-Jun-22 16:30N 29°36' W 120°42'1320.6
2018-Jun-22 15:51N 29°45' W 120°54'1118.9
2018-Jun-22 15:16N 29°52' W 121°04'519.3
2018-Jun-22 14:59N 29°55' W 121°09'918.7
2018-Jun-22 14:30N 30°01' W 121°17'918.5
2018-Jun-22 14:00N 30°07' W 121°26'1018.9
2018-Jun-22 13:29N 30°13' W 121°34'1218.6
2018-Jun-22 12:50N 30°20' W 121°45'618.6
2018-Jun-22 12:30N 30°24' W 121°51'918.6
2018-Jun-22 12:00N 30°30' W 121°59'918.7
2018-Jun-22 11:30N 30°35' W 122°08'918.7
2018-Jun-22 11:00N 30°41' W 122°17'918.5
2018-Jun-22 10:30N 30°46' W 122°26'1118.5
2018-Jun-22 09:56N 30°52' W 122°36'1318.1
2018-Jun-22 09:14N 30°60' W 122°48'518.2
2018-Jun-22 08:58N 31°03' W 122°52'918.2
2018-Jun-22 08:29N 31°08' W 123°01'2418.3
2018-Jun-22 07:10N 31°21' W 123°24'318.7
2018-Jun-22 07:00N 31°23' W 123°27'1118.4
2018-Jun-22 06:25N 31°29' W 123°37'5118.5
2018-Jun-22 03:39N 31°58' W 124°27'  
Track history (hours):
 
Tides and Currents Weather Stations Pressure Air Temp Water Temp Dewpoint Dewpoint Depression Visibility Wind Speed Wind Dir Waves Ship Positions

E.r.tianping

Last reported at 2018-Jun-22 20:00 UTC. Time now 2018-Jun-22 20:15 UTC.
Position N 28°53' W 119°42'.

Length 334 m; draft 13.4 m.

Type: Ship (hazmat cat A). MMSI: 255805670.

Date/timePositionNaut miles runAvg speedWind from/ knotsBaromVisibWave heightAir tempDewpointWater temp
2018-Jun-22 20:00N 28°53' W 119°42'1818.8
2018-Jun-22 19:01N 29°05' W 119°58'118.9
2018-Jun-22 18:57N 29°06' W 119°59'1218.8
2018-Jun-22 18:20N 29°13' W 120°10'718.9
2018-Jun-22 17:58N 29°17' W 120°16'1020.4
2018-Jun-22 17:28N 29°24' W 120°25'1020.7
2018-Jun-22 17:00N 29°30' W 120°33'1020.7
2018-Jun-22 16:30N 29°36' W 120°42'1320.6
2018-Jun-22 15:51N 29°45' W 120°54'1118.9
2018-Jun-22 15:16N 29°52' W 121°04'519.3
2018-Jun-22 14:59N 29°55' W 121°09'918.7
2018-Jun-22 14:30N 30°01' W 121°17'918.5
2018-Jun-22 14:00N 30°07' W 121°26'1018.9
2018-Jun-22 13:29N 30°13' W 121°34'1218.6
2018-Jun-22 12:50N 30°20' W 121°45'618.6
2018-Jun-22 12:30N 30°24' W 121°51'918.6
2018-Jun-22 12:00N 30°30' W 121°59'918.7
2018-Jun-22 11:30N 30°35' W 122°08'918.7
2018-Jun-22 11:00N 30°41' W 122°17'918.5
2018-Jun-22 10:30N 30°46' W 122°26'1118.5
2018-Jun-22 09:56N 30°52' W 122°36'1318.1
2018-Jun-22 09:14N 30°60' W 122°48'518.2
2018-Jun-22 08:58N 31°03' W 122°52'918.2
2018-Jun-22 08:29N 31°08' W 123°01'2418.3
2018-Jun-22 07:10N 31°21' W 123°24'318.7
2018-Jun-22 07:00N 31°23' W 123°27'1118.4
2018-Jun-22 06:25N 31°29' W 123°37'5118.5
2018-Jun-22 03:39N 31°58' W 124°27'  

Dump ship's entire track history